createdAt,value
2019-01-11T00:01:24.711Z,91.22
2019-01-11T00:12:16.836Z,91.17
2019-01-11T00:23:02.536Z,91.30
2019-01-11T00:28:18.809Z,91.68
2019-01-11T00:49:33.259Z,92.44
2019-01-11T00:54:37.533Z,92.53
2019-01-11T01:10:41.037Z,92.14
2019-01-11T01:15:45.601Z,92.21
2019-01-11T01:26:32.068Z,91.67
2019-01-11T01:36:51.575Z,92.09
2019-01-11T01:42:14.871Z,91.94
2019-01-11T01:47:19.167Z,91.79
2019-01-11T01:52:42.582Z,92.25
2019-01-11T01:57:47.105Z,92.48
2019-01-11T02:08:21.282Z,91.90
2019-01-11T02:13:25.527Z,92.25
2019-01-11T02:18:29.802Z,92.02
2019-01-11T02:23:34.033Z,92.17
2019-01-11T02:28:49.758Z,92.59
2019-01-11T02:33:54.013Z,92.62
2019-01-11T02:38:58.252Z,92.88
2019-01-11T02:49:31.658Z,92.76
2019-01-11T02:54:35.963Z,92.96
2019-01-11T02:59:40.548Z,92.82
2019-01-11T03:04:44.807Z,93.05
2019-01-11T03:09:49.083Z,92.89
2019-01-11T03:14:53.318Z,93.19
2019-01-11T03:20:16.540Z,93.64
2019-01-11T03:30:51.344Z,94.35
2019-01-11T03:35:55.589Z,94.33
2019-01-11T03:40:59.827Z,94.61
2019-01-11T03:46:04.071Z,94.39
2019-01-11T03:51:27.398Z,94.45
2019-01-11T03:56:31.635Z,94.36
2019-01-11T04:01:35.870Z,94.30
2019-01-11T04:11:50.080Z,94.33
2019-01-11T04:17:13.534Z,94.14
2019-01-11T04:22:37.017Z,94.30
2019-01-11T04:27:41.299Z,94.33
2019-01-11T04:32:45.568Z,94.14
2019-01-11T04:37:49.859Z,94.27
2019-01-11T04:42:54.102Z,94.32
2019-01-11T04:48:37.726Z,94.49
2019-01-11T04:53:41.966Z,94.15
2019-01-11T04:59:05.282Z,94.25
2019-01-11T05:04:09.606Z,94.60
2019-01-11T05:09:14.164Z,94.10
2019-01-11T05:14:18.407Z,94.10
2019-01-11T05:19:22.694Z,93.98
2019-01-11T05:34:59.732Z,94.01
2019-01-11T05:45:35.267Z,94.12
2019-01-11T05:50:58.572Z,94.32
2019-01-11T05:56:21.713Z,94.57
2019-01-11T06:01:25.947Z,94.76
2019-01-11T06:06:49.133Z,94.01
2019-01-11T06:12:12.435Z,94.48
2019-01-11T06:17:16.774Z,94.61
2019-01-11T06:22:21.015Z,94.52
2019-01-11T06:38:43.378Z,94.17
2019-01-11T06:54:08.390Z,94.89
2019-01-11T06:59:13.040Z,94.75
2019-01-11T07:04:17.274Z,94.71
2019-01-11T07:14:31.330Z,94.71
2019-01-11T07:25:44.341Z,94.46
2019-01-11T07:36:40.164Z,94.78
2019-01-11T07:41:56.864Z,94.70
2019-01-11T07:47:01.101Z,94.82
2019-01-11T07:52:45.042Z,95.01
2019-01-11T07:57:49.277Z,94.99
2019-01-11T08:08:08.821Z,94.89
2019-01-11T08:13:52.407Z,95.13
2019-01-11T08:24:46.289Z,94.74
2019-01-11T08:35:00.491Z,94.90
2019-01-11T08:45:47.378Z,94.66
2019-01-11T08:50:51.643Z,94.79
2019-01-11T09:06:35.968Z,94.99
2019-01-11T09:16:49.817Z,95.27
2019-01-11T09:21:54.104Z,95.46
2019-01-11T09:32:27.275Z,95.73
2019-01-11T09:37:31.509Z,95.45
2019-01-11T09:42:35.750Z,95.34
2019-01-11T09:47:51.706Z,95.27
2019-01-11T09:52:56.220Z,95.54
2019-01-11T09:58:19.533Z,95.76
2019-01-11T10:03:23.752Z,95.75
2019-01-11T10:08:27.994Z,95.61
2019-01-11T10:13:32.247Z,95.81
2019-01-11T10:18:55.655Z,95.74
2019-01-11T10:23:59.904Z,95.77
2019-01-11T10:29:23.212Z,95.68
2019-01-11T10:39:36.989Z,96.22
2019-01-11T10:44:41.245Z,96.40
2019-01-11T10:49:57.037Z,96.25
2019-01-11T10:55:01.271Z,96.05
2019-01-11T11:00:46.462Z,96.08
2019-01-11T11:05:50.691Z,96.05
2019-01-11T11:10:54.919Z,95.97
2019-01-11T11:26:59.667Z,95.98
2019-01-11T11:52:47.024Z,95.43
2019-01-11T11:57:51.270Z,95.50
2019-01-11T12:03:34.955Z,95.42
2019-01-11T12:08:39.204Z,95.62
2019-01-11T12:14:02.786Z,95.62
2019-01-11T12:24:36.074Z,96.05
2019-01-11T12:40:19.162Z,96.14
2019-01-11T12:45:42.467Z,96.40
2019-01-11T12:50:46.697Z,96.65
2019-01-11T12:55:51.173Z,96.75
2019-01-11T13:01:14.497Z,96.81
2019-01-11T13:06:37.912Z,96.79
2019-01-11T13:11:42.156Z,96.76
2019-01-11T13:16:46.402Z,96.41
2019-01-11T13:22:10.007Z,96.19
2019-01-11T13:33:02.430Z,96.26
2019-01-11T13:38:25.651Z,96.45
2019-01-11T13:43:29.908Z,96.78
2019-01-11T13:48:34.142Z,97.00
2019-01-11T13:53:38.372Z,97.21
2019-01-11T13:58:54.197Z,97.49
2019-01-11T14:04:10.153Z,97.75
2019-01-11T14:09:14.422Z,97.75
2019-01-11T14:19:28.904Z,98.03
2019-01-11T14:24:52.287Z,98.24
2019-01-11T14:35:26.122Z,98.48
2019-01-11T14:56:19.801Z,98.83
2019-01-11T15:06:52.919Z,98.55
2019-01-11T15:11:57.159Z,98.37
2019-01-11T15:17:40.783Z,98.30
2019-01-11T15:28:15.235Z,97.91
2019-01-11T15:33:19.586Z,97.88
2019-01-11T15:54:12.499Z,97.28
2019-01-11T15:59:16.738Z,97.38
2019-01-11T16:04:40.251Z,97.51
2019-01-11T16:16:15.463Z,97.56
2019-01-11T16:21:38.787Z,97.79
2019-01-11T16:26:43.013Z,98.01
2019-01-11T16:31:47.276Z,98.17
2019-01-11T16:37:30.882Z,98.24
2019-01-11T16:42:54.458Z,98.25
2019-01-11T16:53:27.879Z,98.31
2019-01-11T17:03:42.369Z,98.62
2019-01-11T17:08:46.645Z,98.71
2019-01-11T17:13:50.879Z,98.70
2019-01-11T17:29:33.898Z,98.84
2019-01-11T17:34:38.521Z,98.74
2019-01-11T17:39:42.761Z,98.67
2019-01-11T17:44:47.046Z,98.70
2019-01-11T17:55:42.126Z,98.69
2019-01-11T18:06:33.947Z,98.82
2019-01-11T18:16:48.182Z,99.05
2019-01-11T18:27:40.154Z,99.11
2019-01-11T18:38:31.997Z,99.59
2019-01-11T18:43:36.378Z,99.78
2019-01-11T18:54:09.543Z,100.00
2019-01-11T19:10:30.532Z,100.00
2019-01-11T19:15:46.924Z,100.00
2019-01-11T19:20:51.226Z,100.00
2019-01-11T19:25:55.500Z,100.00
2019-01-11T19:36:28.856Z,99.69
2019-01-11T19:41:33.104Z,99.40
2019-01-11T19:46:56.403Z,99.26
2019-01-11T19:52:00.697Z,99.05
2019-01-11T20:02:53.419Z,98.11
2019-01-11T20:08:37.084Z,97.47
2019-01-11T20:14:00.490Z,96.76
2019-01-11T20:19:44.219Z,97.21
2019-01-11T20:25:27.831Z,97.04
2019-01-11T20:30:51.138Z,97.09
2019-01-11T20:35:55.367Z,97.37
2019-01-11T20:41:18.681Z,97.87
2019-01-11T20:46:23.319Z,97.96
2019-01-11T20:56:56.863Z,97.01
2019-01-11T21:02:20.181Z,96.44
2019-01-11T21:07:43.489Z,96.24
2019-01-11T21:23:57.868Z,96.70
2019-01-11T21:29:02.182Z,96.71
2019-01-11T21:39:35.521Z,96.94
2019-01-11T21:44:39.781Z,97.21
2019-01-11T21:49:44.072Z,97.44
2019-01-11T21:55:07.319Z,97.49
2019-01-11T22:06:24.626Z,97.65
2019-01-11T22:11:28.848Z,97.39
2019-01-11T22:22:01.706Z,97.77
2019-01-11T22:27:17.559Z,97.52
2019-01-11T22:32:21.856Z,97.15
2019-01-11T22:37:26.115Z,96.54
2019-01-11T22:42:30.350Z,96.28
2019-01-11T22:47:34.939Z,96.66
2019-01-11T22:52:58.243Z,97.31
2019-01-11T23:03:50.429Z,97.61
2019-01-11T23:08:54.706Z,97.44
2019-01-11T23:14:17.996Z,97.46
2019-01-11T23:25:10.405Z,97.33
2019-01-11T23:30:26.568Z,97.44
2019-01-11T23:40:41.059Z,98.23
2019-01-11T23:45:45.565Z,98.31
2019-01-11T23:51:08.862Z,98.21
2019-01-11T23:56:13.145Z,98.16
